Time;durP1;ratioP1;P1;durP2;ratioP2;P2;SDS_P1;SDS_P2;PMS_P1;PMS_P2;Temp;Humidity;BMP_temperature;BMP_pressure;BME280_temperature;BME280_humidity;BME280_pressure;Samples;Min_cycle;Max_cycle;Signal;HPM_P1;HPM_P2
2023/06/23 00:00:48;;;;;;;6.95;3.80;;;;;;;;;;5039993;28;20475;-62
2023/06/23 00:04:28;;;;;;;4.55;3.20;;;;;;;;;;5040170;28;20175;-63
2023/06/23 00:08:08;;;;;;;7.57;3.63;;;;;;;;;;5047372;28;20106;-62
2023/06/23 00:11:49;;;;;;;5.13;3.40;;;;;;;;;;5048167;28;20127;-64
2023/06/23 00:15:29;;;;;;;9.02;3.58;;;;;;;;;;5050529;28;20068;-64
2023/06/23 00:19:11;;;;;;;8.98;3.50;;;;;;;;;;5050553;28;20056;-63
2023/06/23 00:22:50;;;;;;;7.55;3.72;;;;;;;;;;5047388;28;20056;-62
2023/06/23 00:26:31;;;;;;;6.93;3.53;;;;;;;;;;5047600;28;20126;-62
2023/06/23 00:30:11;;;;;;;5.55;3.15;;;;;;;;;;5040149;28;20162;-63
2023/06/23 00:32:57;;;;;;;5.75;3.22;;;;;;;;;;5042100;28;20083;-69
2023/06/23 00:35:23;;;;;;;5.45;3.25;;;;;;;;;;5048845;28;20080;-64
2023/06/23 00:37:52;;;;;;;4.93;3.40;;;;;;;;;;5045505;28;20053;-63
2023/06/23 00:40:22;;;;;;;13.23;3.65;;;;;;;;;;5047479;28;20047;-62
2023/06/23 00:42:55;;;;;;;6.78;3.17;;;;;;;;;;5044878;28;20164;-63
2023/06/23 00:46:39;;;;;;;6.80;3.30;;;;;;;;;;5039708;28;20489;-61
2023/06/23 00:49:39;;;;;;;5.68;3.10;;;;;;;;;;5040082;28;20107;-62
2023/06/23 00:52:07;;;;;;;9.23;3.80;;;;;;;;;;5041681;28;20078;-62
2023/06/23 00:54:35;;;;;;;6.40;3.20;;;;;;;;;;5049214;28;20072;-64
2023/06/23 00:57:03;;;;;;;4.95;3.05;;;;;;;;;;5055676;28;20056;-64
2023/06/23 00:59:29;;;;;;;6.28;3.10;;;;;;;;;;5049262;28;20068;-65
2023/06/23 01:02:00;;;;;;;5.57;3.17;;;;;;;;;;5045659;28;20095;-63
2023/06/23 01:04:28;;;;;;;4.70;3.22;;;;;;;;;;5046542;28;20080;-68
2023/06/23 01:07:28;;;;;;;5.22;3.25;;;;;;;;;;5049431;28;20075;-64
2023/06/23 01:10:15;;;;;;;7.15;2.97;;;;;;;;;;5048525;28;20844;-62
2023/06/23 01:13:00;;;;;;;6.40;3.25;;;;;;;;;;5048630;28;20049;-63
2023/06/23 01:15:36;;;;;;;4.85;3.40;;;;;;;;;;5034062;28;21659;-65
2023/06/23 01:18:05;;;;;;;12.27;3.58;;;;;;;;;;5054650;28;20049;-62
2023/06/23 01:20:35;;;;;;;5.35;3.22;;;;;;;;;;5048895;28;20056;-61
2023/06/23 01:23:20;;;;;;;6.53;3.40;;;;;;;;;;5058873;28;20041;-63
2023/06/23 01:26:00;;;;;;;4.13;3.00;;;;;;;;;;5048094;28;20053;-65
2023/06/23 01:28:44;;;;;;;4.85;3.30;;;;;;;;;;5041916;28;20095;-61
2023/06/23 01:31:15;;;;;;;8.30;3.53;;;;;;;;;;5051645;28;20043;-62
2023/06/23 01:33:59;;;;;;;6.10;3.03;;;;;;;;;;5044939;28;20051;-61
2023/06/23 01:36:51;;;;;;;5.10;2.92;;;;;;;;;;5043092;28;20544;-61
2023/06/23 01:39:21;;;;;;;4.70;3.38;;;;;;;;;;5046239;28;20044;-63
2023/06/23 01:41:56;;;;;;;5.47;2.97;;;;;;;;;;5054222;28;20057;-61
2023/06/23 01:44:24;;;;;;;5.25;2.97;;;;;;;;;;5039296;28;20038;-64
2023/06/23 01:46:54;;;;;;;4.97;3.20;;;;;;;;;;5049892;28;20051;-63
2023/06/23 01:49:28;;;;;;;5.28;2.97;;;;;;;;;;5044442;28;20115;-62
2023/06/23 01:51:55;;;;;;;6.25;3.25;;;;;;;;;;5044521;28;20068;-64
2023/06/23 01:54:22;;;;;;;6.05;2.90;;;;;;;;;;5039923;28;20420;-61
2023/06/23 01:56:49;;;;;;;5.90;3.28;;;;;;;;;;5048829;28;20048;-63
2023/06/23 01:59:17;;;;;;;4.18;2.53;;;;;;;;;;5046288;28;20140;-64
2023/06/23 02:01:45;;;;;;;4.57;2.85;;;;;;;;;;5054018;28;20057;-61
2023/06/23 02:04:13;;;;;;;5.30;2.70;;;;;;;;;;5038717;28;20052;-61
2023/06/23 02:06:40;;;;;;;5.15;2.90;;;;;;;;;;5041302;28;20853;-62
2023/06/23 02:09:17;;;;;;;3.70;2.60;;;;;;;;;;5041298;28;20102;-62
2023/06/23 02:11:44;;;;;;;4.65;2.75;;;;;;;;;;5045664;28;20129;-62
2023/06/23 02:14:12;;;;;;;5.05;3.10;;;;;;;;;;5042014;28;20095;-63
2023/06/23 02:16:40;;;;;;;4.28;2.90;;;;;;;;;;5035322;28;20073;-62
2023/06/23 02:19:08;;;;;;;5.03;2.92;;;;;;;;;;5041774;28;20048;-63
2023/06/23 02:21:35;;;;;;;5.22;3.20;;;;;;;;;;5040575;28;20488;-63
2023/06/23 02:24:06;;;;;;;7.35;3.17;;;;;;;;;;5046015;28;20072;-63
2023/06/23 02:26:37;;;;;;;4.78;2.97;;;;;;;;;;5045562;28;20144;-62
2023/06/23 02:29:06;;;;;;;5.55;2.97;;;;;;;;;;5046854;28;20068;-63
2023/06/23 02:31:33;;;;;;;4.90;2.92;;;;;;;;;;5043288;28;20045;-62
2023/06/23 02:34:01;;;;;;;5.60;3.10;;;;;;;;;;5046872;28;20053;-61
2023/06/23 02:36:41;;;;;;;5.40;2.88;;;;;;;;;;5043440;28;20056;-62
2023/06/23 02:39:08;;;;;;;7.55;2.70;;;;;;;;;;5042272;28;20045;-61
2023/06/23 02:41:36;;;;;;;5.28;2.70;;;;;;;;;;5044827;28;20128;-60
2023/06/23 02:44:11;;;;;;;4.88;2.97;;;;;;;;;;5042576;28;20572;-60
2023/06/23 02:46:39;;;;;;;4.35;2.78;;;;;;;;;;5052048;28;20061;-62
2023/06/23 02:49:14;;;;;;;4.45;2.88;;;;;;;;;;5047177;28;20071;-62
2023/06/23 02:51:43;;;;;;;3.50;2.60;;;;;;;;;;5043154;28;20100;-62
2023/06/23 02:54:17;;;;;;;5.43;2.72;;;;;;;;;;5040919;28;20048;-62
2023/06/23 02:56:46;;;;;;;3.83;2.53;;;;;;;;;;5051924;28;20245;-61
2023/06/23 02:59:15;;;;;;;5.30;2.70;;;;;;;;;;5047156;28;20098;-60
2023/06/23 03:01:45;;;;;;;3.67;2.80;;;;;;;;;;5038671;28;20402;-61
2023/06/23 03:04:16;;;;;;;4.30;2.80;;;;;;;;;;5041253;28;20496;-62
2023/06/23 03:06:43;;;;;;;6.28;3.08;;;;;;;;;;5047231;28;20060;-63
2023/06/23 03:09:10;;;;;;;4.65;2.78;;;;;;;;;;5042447;28;20053;-63
2023/06/23 03:11:37;;;;;;;4.07;2.90;;;;;;;;;;5047948;28;20145;-61
2023/06/23 03:14:04;;;;;;;4.90;2.90;;;;;;;;;;5044581;28;20111;-62
2023/06/23 03:16:39;;;;;;;6.18;2.90;;;;;;;;;;5047855;28;20393;-62
2023/06/23 03:19:14;;;;;;;6.13;2.85;;;;;;;;;;5043114;28;20121;-62
2023/06/23 03:21:40;;;;;;;5.65;3.53;;;;;;;;;;5043485;28;20060;-60
2023/06/23 03:24:09;;;;;;;5.93;3.17;;;;;;;;;;5035874;28;20484;-62
2023/06/23 03:26:39;;;;;;;6.10;2.97;;;;;;;;;;5040663;28;20053;-61
2023/06/23 03:29:10;;;;;;;5.20;2.90;;;;;;;;;;5045783;28;20099;-62
2023/06/23 03:31:39;;;;;;;5.55;3.10;;;;;;;;;;5041598;28;20057;-60
2023/06/23 03:34:06;;;;;;;4.90;2.80;;;;;;;;;;5058062;28;20057;-62
2023/06/23 03:36:35;;;;;;;7.20;3.25;;;;;;;;;;5032701;28;20065;-61
2023/06/23 03:39:15;;;;;;;5.45;3.10;;;;;;;;;;5037875;28;20493;-61
2023/06/23 03:41:42;;;;;;;8.73;2.97;;;;;;;;;;5041235;28;20579;-62
2023/06/23 03:44:17;;;;;;;7.97;3.30;;;;;;;;;;5044091;28;20065;-64
2023/06/23 03:46:51;;;;;;;8.88;2.90;;;;;;;;;;5056044;28;20056;-63
2023/06/23 03:49:22;;;;;;;5.10;3.03;;;;;;;;;;5057880;28;20064;-64
2023/06/23 03:51:50;;;;;;;9.65;3.72;;;;;;;;;;5047850;28;20044;-64
2023/06/23 03:54:17;;;;;;;7.43;3.30;;;;;;;;;;5048053;28;20053;-62
2023/06/23 03:56:47;;;;;;;10.45;3.15;;;;;;;;;;5039860;28;20055;-61
2023/06/23 03:59:14;;;;;;;8.75;3.42;;;;;;;;;;5044889;28;20056;-61
2023/06/23 04:01:43;;;;;;;8.48;4.28;;;;;;;;;;5063388;28;20135;-60
2023/06/23 04:04:11;;;;;;;8.13;3.50;;;;;;;;;;5056783;28;20107;-61
2023/06/23 04:06:40;;;;;;;10.80;3.45;;;;;;;;;;5059068;28;20045;-62
2023/06/23 04:09:08;;;;;;;8.50;3.08;;;;;;;;;;5039479;28;20041;-61
2023/06/23 04:11:35;;;;;;;5.50;3.22;;;;;;;;;;5047728;28;20111;-62
2023/06/23 04:14:02;;;;;;;10.43;3.22;;;;;;;;;;5046832;28;20101;-61
2023/06/23 04:16:28;;;;;;;7.32;3.70;;;;;;;;;;5045760;28;20044;-62
2023/06/23 04:18:58;;;;;;;11.48;3.42;;;;;;;;;;5048083;28;20045;-63
2023/06/23 04:21:25;;;;;;;15.85;3.70;;;;;;;;;;5050190;28;20041;-64
2023/06/23 04:23:52;;;;;;;14.38;3.33;;;;;;;;;;5049535;28;20049;-62
2023/06/23 04:26:18;;;;;;;8.70;3.75;;;;;;;;;;5046365;28;20056;-62
2023/06/23 04:28:48;;;;;;;11.88;3.75;;;;;;;;;;5044772;28;20051;-63
2023/06/23 04:31:16;;;;;;;13.55;4.10;;;;;;;;;;5042317;28;20047;-64
2023/06/23 04:33:42;;;;;;;12.32;3.90;;;;;;;;;;5036998;28;20057;-63
2023/06/23 04:36:16;;;;;;;7.60;3.58;;;;;;;;;;5042884;28;20554;-62
2023/06/23 04:38:53;;;;;;;10.20;3.60;;;;;;;;;;5048669;28;20037;-63
2023/06/23 04:41:23;;;;;;;15.88;3.92;;;;;;;;;;5049736;28;20068;-64
2023/06/23 04:43:53;;;;;;;11.02;3.80;;;;;;;;;;5044917;28;20057;-62
2023/06/23 04:46:28;;;;;;;13.02;4.15;;;;;;;;;;5043125;28;20523;-60
2023/06/23 04:49:03;;;;;;;9.05;3.35;;;;;;;;;;5044898;28;20052;-62
2023/06/23 04:51:34;;;;;;;10.13;3.83;;;;;;;;;;5053098;28;20436;-63
2023/06/23 04:54:07;;;;;;;7.80;3.60;;;;;;;;;;5044196;28;20332;-62
2023/06/23 04:56:36;;;;;;;8.77;3.92;;;;;;;;;;5045013;28;20448;-62
2023/06/23 04:59:06;;;;;;;11.43;3.97;;;;;;;;;;5053160;28;20053;-66
2023/06/23 05:01:33;;;;;;;7.93;3.65;;;;;;;;;;5046903;28;20043;-61
2023/06/23 05:04:02;;;;;;;14.30;3.97;;;;;;;;;;5028791;28;20068;-63
2023/06/23 05:06:31;;;;;;;8.02;3.58;;;;;;;;;;5032025;28;20496;-63
2023/06/23 05:09:00;;;;;;;6.85;3.25;;;;;;;;;;5044803;28;20057;-62
2023/06/23 05:12:07;;;;;;;8.75;4.10;;;;;;;;;;5030782;28;20455;-63
2023/06/23 05:15:47;;;;;;;9.50;3.55;;;;;;;;;;5040735;28;20079;-62
2023/06/23 05:19:27;;;;;;;8.13;3.58;;;;;;;;;;5032333;28;20049;-63
2023/06/23 05:23:08;;;;;;;7.85;3.33;;;;;;;;;;5031370;28;20044;-61
2023/06/23 05:26:48;;;;;;;6.72;3.63;;;;;;;;;;5035361;28;20575;-62
2023/06/23 05:30:29;;;;;;;11.98;3.95;;;;;;;;;;5037637;28;20044;-64
2023/06/23 05:34:11;;;;;;;9.65;4.03;;;;;;;;;;5036270;28;20048;-62
2023/06/23 05:37:51;;;;;;;9.40;4.65;;;;;;;;;;5034481;28;20049;-63
2023/06/23 05:41:31;;;;;;;13.57;4.50;;;;;;;;;;5037804;28;20463;-62
2023/06/23 05:45:11;;;;;;;12.52;4.53;;;;;;;;;;5037040;28;20078;-61
2023/06/23 05:49:04;;;;;;;16.63;4.55;;;;;;;;;;5039359;28;20510;-64
2023/06/23 05:52:44;;;;;;;14.02;4.90;;;;;;;;;;5041835;28;20060;-62
2023/06/23 05:56:25;;;;;;;12.77;5.38;;;;;;;;;;5038141;28;20041;-62
2023/06/23 06:00:09;;;;;;;21.38;4.90;;;;;;;;;;5035587;28;20051;-66
2023/06/23 06:03:47;;;;;;;11.02;4.57;;;;;;;;;;5043421;28;20485;-66
2023/06/23 06:07:30;;;;;;;9.25;4.60;;;;;;;;;;5036238;28;20053;-70
2023/06/23 06:11:16;;;;;;;13.32;4.93;;;;;;;;;;5038975;28;20084;-66
2023/06/23 06:14:54;;;;;;;14.65;5.25;;;;;;;;;;5047601;28;20076;-65
2023/06/23 06:17:57;;;;;;;14.02;5.65;;;;;;;;;;5032152;28;20895;-67
2023/06/23 06:20:26;;;;;;;9.68;5.10;;;;;;;;;;5037086;28;20127;-66
2023/06/23 06:22:53;;;;;;;13.25;4.70;;;;;;;;;;5038159;28;20194;-65
2023/06/23 06:25:59;;;;;;;13.13;5.45;;;;;;;;;;5037359;28;20052;-66
2023/06/23 06:29:40;;;;;;;10.98;5.38;;;;;;;;;;5039352;28;20041;-67
2023/06/23 06:33:20;;;;;;;10.77;5.00;;;;;;;;;;5034793;28;20051;-67
2023/06/23 06:37:00;;;;;;;13.52;4.68;;;;;;;;;;5044806;28;20225;-67
2023/06/23 06:40:41;;;;;;;14.30;4.75;;;;;;;;;;5037288;28;20049;-69
2023/06/23 06:44:21;;;;;;;13.68;4.32;;;;;;;;;;5039439;28;20049;-67
2023/06/23 06:48:01;;;;;;;15.45;4.18;;;;;;;;;;5019682;28;22509;-65
2023/06/23 06:51:42;;;;;;;17.08;4.53;;;;;;;;;;5037785;28;20076;-67
2023/06/23 06:55:23;;;;;;;12.48;4.25;;;;;;;;;;5031368;28;20467;-66
2023/06/23 06:58:26;;;;;;;16.77;7.40;;;;;;;;;;5035810;28;20545;-66
2023/06/23 07:00:55;;;;;;;14.30;4.70;;;;;;;;;;5035555;28;20060;-66
2023/06/23 07:03:22;;;;;;;14.20;7.00;;;;;;;;;;5037257;28;20047;-67
2023/06/23 07:05:48;;;;;;;17.08;7.43;;;;;;;;;;5042205;28;20067;-69
2023/06/23 07:08:14;;;;;;;21.73;10.52;;;;;;;;;;5033906;28;20041;-67
2023/06/23 07:10:41;;;;;;;13.65;5.18;;;;;;;;;;5038980;28;20091;-67
2023/06/23 07:13:07;;;;;;;12.13;5.85;;;;;;;;;;5029825;28;20057;-65
2023/06/23 07:16:14;;;;;;;21.73;13.23;;;;;;;;;;5033442;28;20130;-68
2023/06/23 07:19:40;;;;;;;15.18;7.13;;;;;;;;;;5029891;28;20049;-66
2023/06/23 07:23:20;;;;;;;17.38;9.05;;;;;;;;;;5033185;28;20132;-66
2023/06/23 07:27:02;;;;;;;17.50;8.10;;;;;;;;;;5029996;28;20184;-66
2023/06/23 07:30:46;;;;;;;15.88;7.53;;;;;;;;;;5038756;28;20187;-66
2023/06/23 07:34:26;;;;;;;9.77;4.25;;;;;;;;;;5034604;28;20052;-66
2023/06/23 07:38:07;;;;;;;12.82;5.75;;;;;;;;;;5035981;28;20118;-68
2023/06/23 07:41:47;;;;;;;13.18;5.35;;;;;;;;;;5031511;28;20156;-66
2023/06/23 07:45:27;;;;;;;9.60;3.92;;;;;;;;;;5036159;28;20558;-68
2023/06/23 07:49:08;;;;;;;13.80;4.57;;;;;;;;;;5031398;28;20055;-68
2023/06/23 07:52:48;;;;;;;10.15;3.83;;;;;;;;;;5034258;28;20061;-68
2023/06/23 07:56:29;;;;;;;12.45;4.25;;;;;;;;;;5039635;28;20060;-69
2023/06/23 08:00:10;;;;;;;12.57;4.40;;;;;;;;;;5034246;28;20033;-67
2023/06/23 08:03:50;;;;;;;10.73;4.07;;;;;;;;;;5030695;28;21322;-66
2023/06/23 08:07:31;;;;;;;10.10;4.10;;;;;;;;;;5035966;28;20452;-66
2023/06/23 08:11:11;;;;;;;8.43;4.00;;;;;;;;;;5037102;28;20041;-66
2023/06/23 08:14:53;;;;;;;10.85;3.60;;;;;;;;;;5030684;28;20057;-68
2023/06/23 08:18:33;;;;;;;9.75;4.45;;;;;;;;;;5031619;28;20057;-68
2023/06/23 08:22:15;;;;;;;13.95;4.07;;;;;;;;;;5033127;28;20100;-66
2023/06/23 08:25:55;;;;;;;10.27;3.50;;;;;;;;;;5035941;28;20053;-69
2023/06/23 08:29:37;;;;;;;9.25;4.00;;;;;;;;;;5036007;28;20115;-70
2023/06/23 08:33:16;;;;;;;10.00;3.78;;;;;;;;;;5033322;28;20480;-67
2023/06/23 08:37:01;;;;;;;9.75;3.72;;;;;;;;;;5042072;28;20174;-67
2023/06/23 08:40:41;;;;;;;14.02;4.05;;;;;;;;;;5038008;28;20099;-68
2023/06/23 08:44:21;;;;;;;12.32;4.03;;;;;;;;;;5045111;28;20404;-68
2023/06/23 08:48:05;;;;;;;13.50;4.15;;;;;;;;;;5045155;28;20041;-68
2023/06/23 08:51:45;;;;;;;10.52;4.00;;;;;;;;;;5047728;28;20033;-69
2023/06/23 08:54:47;;;;;;;14.32;4.15;;;;;;;;;;5033442;28;20052;-70
2023/06/23 08:58:00;;;;;;;10.65;3.65;;;;;;;;;;5037862;28;20072;-66
2023/06/23 09:01:42;;;;;;;6.40;3.55;;;;;;;;;;5046446;28;20493;-65
2023/06/23 09:05:22;;;;;;;8.13;3.33;;;;;;;;;;5046626;28;20033;-69
2023/06/23 09:09:03;;;;;;;5.45;3.17;;;;;;;;;;5043408;28;20041;-66
2023/06/23 09:12:44;;;;;;;7.15;3.20;;;;;;;;;;5036398;28;20041;-68
2023/06/23 09:16:25;;;;;;;7.63;3.00;;;;;;;;;;5034537;28;20061;-69
2023/06/23 09:20:06;;;;;;;9.60;3.28;;;;;;;;;;5041090;28;20104;-67
2023/06/23 09:23:47;;;;;;;9.23;3.45;;;;;;;;;;5042191;28;20049;-69
2023/06/23 09:27:27;;;;;;;11.38;3.60;;;;;;;;;;5051034;28;20260;-68
2023/06/23 09:31:07;;;;;;;9.48;3.80;;;;;;;;;;5037663;28;20132;-70
2023/06/23 09:34:49;;;;;;;10.60;3.65;;;;;;;;;;5048335;28;20033;-67
2023/06/23 09:38:30;;;;;;;6.25;3.25;;;;;;;;;;5039683;28;20076;-70
2023/06/23 09:42:14;;;;;;;7.57;3.50;;;;;;;;;;5037325;28;20496;-69
2023/06/23 09:45:57;;;;;;;12.00;3.30;;;;;;;;;;5034613;28;20120;-68
2023/06/23 09:48:59;;;;;;;12.05;3.78;;;;;;;;;;5037105;28;20262;-69
2023/06/23 09:52:06;;;;;;;9.85;3.45;;;;;;;;;;5039928;28;20041;-69
2023/06/23 09:55:46;;;;;;;9.75;3.25;;;;;;;;;;5047834;28;20132;-69
2023/06/23 09:59:26;;;;;;;12.63;4.03;;;;;;;;;;5046061;28;20036;-67
2023/06/23 10:03:07;;;;;;;12.52;3.80;;;;;;;;;;5040502;28;20055;-69
2023/06/23 10:06:28;;;;;;;9.95;5.20;;;;;;;;;;5039007;28;20048;-73
2023/06/23 10:10:07;;;;;;;10.13;4.40;;;;;;;;;;5041199;28;20117;-69
2023/06/23 10:13:48;;;;;;;8.75;3.95;;;;;;;;;;5046142;28;20475;-71
2023/06/23 10:17:28;;;;;;;8.52;3.92;;;;;;;;;;5039570;28;20133;-66
2023/06/23 10:21:08;;;;;;;6.75;3.15;;;;;;;;;;5044132;28;20128;-66
2023/06/23 10:24:49;;;;;;;8.82;3.53;;;;;;;;;;5043246;28;20119;-69
2023/06/23 10:28:29;;;;;;;8.77;3.47;;;;;;;;;;5039022;28;20049;-66
2023/06/23 10:32:09;;;;;;;5.72;2.78;;;;;;;;;;5043321;28;20055;-64
2023/06/23 10:35:50;;;;;;;8.60;3.53;;;;;;;;;;5044192;28;20177;-68
2023/06/23 10:39:30;;;;;;;9.77;3.63;;;;;;;;;;5047459;28;20124;-67
2023/06/23 10:43:10;;;;;;;11.40;3.70;;;;;;;;;;5038228;28;20045;-67
2023/06/23 10:46:11;;;;;;;11.80;3.70;;;;;;;;;;5044534;28;20396;-70
2023/06/23 10:49:20;;;;;;;11.30;4.10;;;;;;;;;;5053468;28;20118;-69
2023/06/23 10:53:00;;;;;;;12.90;4.43;;;;;;;;;;5044502;28;20037;-72
2023/06/23 10:56:29;;;;;;;8.50;4.00;;;;;;;;;;5033654;28;20057;-73
2023/06/23 11:00:13;;;;;;;8.68;3.55;;;;;;;;;;5049684;28;20119;-73
2023/06/23 11:03:54;;;;;;;9.38;3.40;;;;;;;;;;5047794;28;20124;-72
2023/06/23 11:07:41;;;;;;;10.82;2.80;;;;;;;;;;5041224;28;20043;-74
2023/06/23 11:11:07;;;;;;;7.10;3.03;;;;;;;;;;5041418;28;20079;-73
2023/06/23 11:14:49;;;;;;;7.22;2.63;;;;;;;;;;5042081;28;20122;-74
2023/06/23 11:18:01;;;;;;;5.25;2.53;;;;;;;;;;5043468;28;20103;-72
2023/06/23 11:21:28;;;;;;;7.13;2.75;;;;;;;;;;5035455;28;20777;-73
2023/06/23 11:25:11;;;;;;;6.18;2.50;;;;;;;;;;5042261;28;20428;-74
2023/06/23 11:29:06;;;;;;;6.55;2.50;;;;;;;;;;5045035;28;20036;-73
2023/06/23 11:32:46;;;;;;;6.45;2.42;;;;;;;;;;5041467;28;20049;-73
2023/06/23 11:36:29;;;;;;;7.28;2.35;;;;;;;;;;5041438;28;20050;-73
2023/06/23 11:40:11;;;;;;;8.52;2.80;;;;;;;;;;5048362;28;20048;-74
2023/06/23 11:43:50;;;;;;;8.07;2.50;;;;;;;;;;5046645;28;20140;-74
2023/06/23 11:47:30;;;;;;;4.88;2.20;;;;;;;;;;5046508;28;20522;-72
2023/06/23 11:51:12;;;;;;;5.78;2.50;;;;;;;;;;5035527;28;20053;-74
2023/06/23 11:54:53;;;;;;;6.13;2.67;;;;;;;;;;5043344;28;20053;-73
2023/06/23 11:58:33;;;;;;;6.97;2.40;;;;;;;;;;5041682;28;20060;-75
2023/06/23 12:02:14;;;;;;;7.07;2.72;;;;;;;;;;5047981;28;20052;-77
2023/06/23 12:05:54;;;;;;;9.13;3.20;;;;;;;;;;5040975;28;20409;-74
2023/06/23 12:09:34;;;;;;;8.63;3.10;;;;;;;;;;5050516;28;20059;-76
2023/06/23 12:13:16;;;;;;;6.32;2.83;;;;;;;;;;5037082;28;20107;-73
2023/06/23 12:16:56;;;;;;;8.60;2.78;;;;;;;;;;5041160;28;20080;-74
2023/06/23 12:20:52;;;;;;;7.80;2.92;;;;;;;;;;5041487;28;20186;-74
2023/06/23 12:24:33;;;;;;;7.88;2.67;;;;;;;;;;5048371;28;20405;-77
2023/06/23 12:28:14;;;;;;;6.10;2.70;;;;;;;;;;5044968;28;20088;-65
2023/06/23 12:31:54;;;;;;;10.38;3.00;;;;;;;;;;5052967;28;20052;-64
2023/06/23 12:35:34;;;;;;;8.45;2.83;;;;;;;;;;5034988;28;20045;-68
2023/06/23 12:39:15;;;;;;;5.07;2.58;;;;;;;;;;5040265;28;20044;-74
2023/06/23 12:42:56;;;;;;;6.63;2.60;;;;;;;;;;5041785;28;20049;-74
2023/06/23 12:46:38;;;;;;;6.97;2.50;;;;;;;;;;5049028;28;20683;-79
2023/06/23 12:50:21;;;;;;;5.78;2.30;;;;;;;;;;5050401;28;20139;-74
2023/06/23 12:54:04;;;;;;;10.02;2.65;;;;;;;;;;5048640;28;20048;-75
2023/06/23 12:57:45;;;;;;;7.03;2.90;;;;;;;;;;5047061;28;20205;-73
2023/06/23 13:01:27;;;;;;;6.65;2.70;;;;;;;;;;5032802;28;20045;-75
2023/06/23 13:05:08;;;;;;;6.95;3.00;;;;;;;;;;5037473;28;20045;-75
2023/06/23 13:08:48;;;;;;;6.35;2.67;;;;;;;;;;5047102;28;20048;-78
2023/06/23 13:12:28;;;;;;;5.60;2.60;;;;;;;;;;5042945;28;20048;-75
2023/06/23 13:16:12;;;;;;;7.03;2.78;;;;;;;;;;5036699;28;20115;-75
2023/06/23 13:19:53;;;;;;;7.72;3.30;;;;;;;;;;5042213;28;20438;-78
2023/06/23 13:23:33;;;;;;;10.85;2.40;;;;;;;;;;5040817;28;20041;-76
2023/06/23 13:27:15;;;;;;;8.45;3.25;;;;;;;;;;5042078;28;20116;-76
2023/06/23 13:30:58;;;;;;;6.45;2.55;;;;;;;;;;5048845;28;20510;-79
2023/06/23 13:34:39;;;;;;;6.50;2.22;;;;;;;;;;5049149;28;20051;-77
2023/06/23 13:38:27;;;;;;;6.10;2.40;;;;;;;;;;5134078;22;21209;-81
2023/06/23 13:41:49;;;;;;;;;;;;;;;;;;5055491;28;20045;-80
2023/06/23 13:45:33;;;;;;;9.60;2.70;;;;;;;;;;5593396;22;19906;-83
2023/06/23 13:49:15;;;;;;;10.63;2.80;;;;;;;;;;5109284;28;20035;-83
2023/06/23 13:52:59;;;;;;;6.63;2.60;;;;;;;;;;5107653;28;20039;-83
2023/06/23 13:56:41;;;;;;;7.75;2.88;;;;;;;;;;5107328;28;20036;-78
2023/06/23 14:00:41;;;;;;;6.97;2.50;;;;;;;;;;5115447;27;21024;-79
2023/06/23 14:04:21;;;;;;;13.48;2.90;;;;;;;;;;5108492;28;20108;-81
2023/06/23 14:13:15;;;;;;;9.43;2.70;;;;;;;;;;5082040;28;20552;-78
2023/06/23 14:17:08;;;;;;;6.95;2.42;;;;;;;;;;5093430;28;20058;-79
2023/06/23 14:21:16;;;;;;;7.68;2.38;;;;;;;;;;5094806;28;20054;-76
2023/06/23 14:24:57;;;;;;;4.95;2.33;;;;;;;;;;5081315;28;20537;-80
2023/06/23 14:28:37;;;;;;;4.15;2.40;;;;;;;;;;5088958;28;20049;-75
2023/06/23 14:31:38;;;;;;;6.88;2.90;;;;;;;;;;5095831;28;20097;-78
2023/06/23 14:34:05;;;;;;;4.63;2.42;;;;;;;;;;5100123;28;20036;-80
2023/06/23 14:36:30;;;;;;;6.47;2.92;;;;;;;;;;5096221;28;20063;-78
2023/06/23 14:39:36;;;;;;;6.15;3.10;;;;;;;;;;5100093;28;20115;-81
2023/06/23 14:43:18;;;;;;;5.47;2.78;;;;;;;;;;5092645;28;20083;-81
2023/06/23 14:47:10;;;;;;;9.80;2.43;;;;;;;;;;5031177;28;20038;-80
2023/06/23 14:50:51;;;;;;;4.60;2.25;;;;;;;;;;5017818;28;20120;-74
2023/06/23 14:54:38;;;;;;;17.15;3.28;;;;;;;;;;5015469;28;20081;-76
2023/06/23 14:58:20;;;;;;;10.70;2.63;;;;;;;;;;5019465;28;20580;-72
2023/06/23 15:02:00;;;;;;;6.95;2.60;;;;;;;;;;5015935;28;20068;-75
2023/06/23 15:05:40;;;;;;;9.48;3.10;;;;;;;;;;5016786;28;20042;-73
2023/06/23 15:09:21;;;;;;;14.57;3.20;;;;;;;;;;5018607;28;20049;-73
2023/06/23 15:13:02;;;;;;;8.98;2.63;;;;;;;;;;5030907;28;20076;-74
2023/06/23 15:16:43;;;;;;;17.35;3.08;;;;;;;;;;5046889;28;20087;-71
2023/06/23 15:19:44;;;;;;;15.65;3.13;;;;;;;;;;5027684;28;20077;-74
2023/06/23 15:22:10;;;;;;;8.60;2.67;;;;;;;;;;5033507;28;20045;-69
2023/06/23 15:24:37;;;;;;;11.27;2.47;;;;;;;;;;5080773;28;20088;-67
2023/06/23 15:27:03;;;;;;;8.93;2.70;;;;;;;;;;5106475;28;20050;-67
2023/06/23 15:29:30;;;;;;;8.80;2.60;;;;;;;;;;5099807;28;20066;-65
2023/06/23 15:31:58;;;;;;;9.38;2.80;;;;;;;;;;5102447;28;20149;-66
2023/06/23 15:34:27;;;;;;;10.10;2.70;;;;;;;;;;5100267;28;20104;-65
2023/06/23 15:36:57;;;;;;;8.90;2.70;;;;;;;;;;5107470;28;20062;-66
2023/06/23 15:39:28;;;;;;;12.95;2.95;;;;;;;;;;5089242;28;20051;-73
2023/06/23 15:42:12;;;;;;;12.88;3.30;;;;;;;;;;5103436;28;20046;-76
2023/06/23 15:44:42;;;;;;;12.95;3.00;;;;;;;;;;5100247;28;20243;-68
2023/06/23 15:47:09;;;;;;;10.18;2.80;;;;;;;;;;5101557;28;20336;-72
2023/06/23 15:49:37;;;;;;;9.52;2.70;;;;;;;;;;5094540;28;20500;-68
2023/06/23 15:52:05;;;;;;;11.40;2.60;;;;;;;;;;5101613;28;20082;-74
2023/06/23 15:54:32;;;;;;;7.15;2.88;;;;;;;;;;5099605;28;20071;-72
2023/06/23 15:56:59;;;;;;;6.78;2.40;;;;;;;;;;5098797;28;20048;-72
2023/06/23 15:59:25;;;;;;;9.00;4.22;;;;;;;;;;5083191;28;20040;-72
2023/06/23 16:01:52;;;;;;;7.72;2.50;;;;;;;;;;5095619;28;20036;-71
2023/06/23 16:04:18;;;;;;;8.60;2.55;;;;;;;;;;5105333;28;20117;-73
2023/06/23 16:06:44;;;;;;;4.82;2.50;;;;;;;;;;5106298;28;20473;-70
2023/06/23 16:09:10;;;;;;;6.22;2.70;;;;;;;;;;5105033;28;20495;-73
2023/06/23 16:11:37;;;;;;;9.32;2.58;;;;;;;;;;5078574;28;20159;-75
2023/06/23 16:14:03;;;;;;;7.95;2.67;;;;;;;;;;5107096;28;20068;-72
2023/06/23 16:16:32;;;;;;;6.68;3.05;;;;;;;;;;5106146;28;20051;-72
2023/06/23 16:18:58;;;;;;;6.30;2.90;;;;;;;;;;5087424;28;20047;-73
2023/06/23 16:21:25;;;;;;;6.38;2.50;;;;;;;;;;5107950;28;20043;-72
2023/06/23 16:23:53;;;;;;;7.32;2.65;;;;;;;;;;5106941;28;20039;-73
2023/06/23 16:26:20;;;;;;;8.27;3.00;;;;;;;;;;5100845;28;20336;-70
2023/06/23 16:28:45;;;;;;;7.25;2.90;;;;;;;;;;5105409;28;20039;-70
2023/06/23 16:31:12;;;;;;;7.40;2.60;;;;;;;;;;5106568;28;20483;-74
2023/06/23 16:33:37;;;;;;;7.93;2.80;;;;;;;;;;5108739;28;20055;-74
2023/06/23 16:36:04;;;;;;;5.63;2.60;;;;;;;;;;5106981;28;20040;-74
2023/06/23 16:38:32;;;;;;;5.30;2.33;;;;;;;;;;5090715;28;20326;-74
2023/06/23 16:40:58;;;;;;;7.28;2.45;;;;;;;;;;5107197;28;20044;-73
2023/06/23 16:43:24;;;;;;;7.57;2.38;;;;;;;;;;5101778;28;20062;-74
2023/06/23 16:45:51;;;;;;;4.70;2.40;;;;;;;;;;5107104;28;20059;-74
2023/06/23 16:48:17;;;;;;;5.18;2.70;;;;;;;;;;5112083;27;20499;-74
2023/06/23 16:50:43;;;;;;;6.32;2.53;;;;;;;;;;5109920;28;20051;-71
2023/06/23 16:53:10;;;;;;;7.20;2.67;;;;;;;;;;5107489;27;20774;-73
2023/06/23 16:55:38;;;;;;;8.02;2.53;;;;;;;;;;5103847;27;20171;-76
2023/06/23 16:58:04;;;;;;;5.97;2.70;;;;;;;;;;5094012;28;20043;-77
2023/06/23 17:00:31;;;;;;;6.25;2.45;;;;;;;;;;5106789;28;20044;-74
2023/06/23 17:02:57;;;;;;;6.18;2.42;;;;;;;;;;5095415;28;20467;-75
2023/06/23 17:05:25;;;;;;;4.85;2.30;;;;;;;;;;5109552;27;20124;-74
2023/06/23 17:07:51;;;;;;;6.45;2.47;;;;;;;;;;5111226;28;20498;-77
2023/06/23 17:10:17;;;;;;;4.68;2.40;;;;;;;;;;5109126;28;20043;-72
2023/06/23 17:12:43;;;;;;;7.60;2.63;;;;;;;;;;5110881;27;20526;-72
2023/06/23 17:15:10;;;;;;;4.43;2.50;;;;;;;;;;5105548;28;20051;-73
2023/06/23 17:17:36;;;;;;;5.57;2.90;;;;;;;;;;5110857;28;20052;-73
2023/06/23 17:20:03;;;;;;;7.30;2.85;;;;;;;;;;5111185;27;20043;-72
2023/06/23 17:22:29;;;;;;;5.95;2.75;;;;;;;;;;5109552;27;20036;-74
2023/06/23 17:24:56;;;;;;;6.03;3.05;;;;;;;;;;5092455;28;20047;-73
2023/06/23 17:27:22;;;;;;;8.00;3.05;;;;;;;;;;5111098;28;20518;-73
2023/06/23 17:29:49;;;;;;;8.77;2.90;;;;;;;;;;5108591;27;20044;-73
2023/06/23 17:32:15;;;;;;;7.55;2.75;;;;;;;;;;5109889;27;20506;-72
2023/06/23 17:34:41;;;;;;;7.65;2.80;;;;;;;;;;5110246;28;20066;-74
2023/06/23 17:37:08;;;;;;;6.85;2.80;;;;;;;;;;5111706;27;20121;-72
2023/06/23 17:39:34;;;;;;;4.80;2.80;;;;;;;;;;5106552;27;20040;-72
2023/06/23 17:42:01;;;;;;;10.00;3.13;;;;;;;;;;5104107;27;20058;-71
2023/06/23 17:44:27;;;;;;;8.35;2.92;;;;;;;;;;5108005;27;20048;-72
2023/06/23 17:46:54;;;;;;;11.88;2.63;;;;;;;;;;5108330;28;20047;-74
2023/06/23 17:49:22;;;;;;;16.30;3.15;;;;;;;;;;5091902;28;20044;-72
2023/06/23 17:51:48;;;;;;;6.20;2.83;;;;;;;;;;5098729;28;20043;-74
2023/06/23 17:54:14;;;;;;;9.38;2.72;;;;;;;;;;5109271;28;20464;-72
2023/06/23 17:56:42;;;;;;;8.20;2.60;;;;;;;;;;5105791;28;20096;-72
2023/06/23 17:59:11;;;;;;;5.47;2.63;;;;;;;;;;5108044;27;20095;-72
2023/06/23 18:01:38;;;;;;;6.90;3.03;;;;;;;;;;5104631;27;20442;-74
2023/06/23 18:04:05;;;;;;;10.55;3.60;;;;;;;;;;5105650;27;20410;-73
2023/06/23 18:06:31;;;;;;;7.15;2.55;;;;;;;;;;5110182;28;20047;-73
2023/06/23 18:08:57;;;;;;;9.82;2.70;;;;;;;;;;5109800;28;20614;-73
2023/06/23 18:11:23;;;;;;;6.28;2.30;;;;;;;;;;5098470;28;20044;-73